createdAt,value
2022-11-14T00:01:12.933Z,86.87
2022-11-14T00:03:39.688Z,86.87
2022-11-14T00:06:07.305Z,86.66
2022-11-14T00:08:34.412Z,86.44
2022-11-14T00:11:01.012Z,86.91
2022-11-14T00:13:30.738Z,86.64
2022-11-14T00:15:57.343Z,86.66
2022-11-14T00:18:24.269Z,86.33
2022-11-14T00:20:52.548Z,86.75
2022-11-14T00:23:20.340Z,87.10
2022-11-14T00:25:47.276Z,86.89
2022-11-14T00:28:14.244Z,86.91
2022-11-14T00:30:41.136Z,87.10
2022-11-14T00:33:07.718Z,87.05
2022-11-14T00:35:34.312Z,86.95
2022-11-14T00:38:03.851Z,86.70
2022-11-14T00:40:30.412Z,86.96
2022-11-14T00:42:59.308Z,86.82
2022-11-14T00:45:25.854Z,86.84
2022-11-14T00:47:52.554Z,86.92
2022-11-14T00:50:19.198Z,87.09
2022-11-14T00:52:45.796Z,87.23
2022-11-14T00:55:12.345Z,87.11
2022-11-14T00:57:38.917Z,87.03
2022-11-14T01:00:06.688Z,87.30
2022-11-14T01:02:33.331Z,86.71
2022-11-14T01:05:00.292Z,86.88
2022-11-14T01:07:27.143Z,87.36
2022-11-14T01:09:53.747Z,87.35
2022-11-14T01:12:20.345Z,87.30
2022-11-14T01:14:47.121Z,87.00
2022-11-14T01:17:13.885Z,86.92
2022-11-14T01:19:40.865Z,87.07
2022-11-14T01:22:08.656Z,87.20
2022-11-14T01:24:35.344Z,86.59
2022-11-14T01:27:02.137Z,87.08
2022-11-14T01:29:29.188Z,86.73
2022-11-14T01:31:56.367Z,86.93
2022-11-14T01:34:23.714Z,86.57
2022-11-14T01:36:50.368Z,87.37
2022-11-14T01:39:16.959Z,87.27
2022-11-14T01:41:43.624Z,86.63
2022-11-14T01:44:18.523Z,87.13
2022-11-14T01:46:54.673Z,87.46
2022-11-14T01:49:26.032Z,86.66
2022-11-14T01:52:11.942Z,86.74
2022-11-14T01:54:43.492Z,87.02
2022-11-14T01:57:11.563Z,87.15
2022-11-14T01:59:44.160Z,87.67
2022-11-14T02:02:17.412Z,86.98
2022-11-14T02:04:48.816Z,87.52
2022-11-14T02:07:15.993Z,87.36
2022-11-14T02:09:46.144Z,87.58
2022-11-14T02:12:15.009Z,87.52
2022-11-14T02:14:45.319Z,87.47
2022-11-14T02:17:30.910Z,87.65
2022-11-14T02:20:10.057Z,87.11
2022-11-14T02:22:37.891Z,87.63
2022-11-14T02:25:04.883Z,87.63
2022-11-14T02:27:33.996Z,86.93
2022-11-14T02:30:10.106Z,87.37
2022-11-14T02:35:23.253Z,87.35
2022-11-14T02:37:49.869Z,86.81
2022-11-14T02:40:16.783Z,87.27
2022-11-14T02:42:43.380Z,86.98
2022-11-14T02:45:11.337Z,87.12
2022-11-14T02:47:38.015Z,87.68
2022-11-14T02:50:04.925Z,87.63
2022-11-14T02:52:31.920Z,87.35
2022-11-14T02:54:58.585Z,87.23
2022-11-14T02:57:25.127Z,87.19
2022-11-14T02:59:51.729Z,87.36
2022-11-14T03:02:20.104Z,87.33
2022-11-14T03:04:46.701Z,87.35
2022-11-14T03:07:13.458Z,87.73
2022-11-14T03:09:40.183Z,87.72
2022-11-14T03:12:06.917Z,87.24
2022-11-14T03:14:33.554Z,87.52
2022-11-14T03:17:00.138Z,87.39
2022-11-14T03:19:26.731Z,87.31
2022-11-14T03:21:53.384Z,87.47
2022-11-14T03:24:20.061Z,87.37
2022-11-14T03:26:46.684Z,87.73
2022-11-14T03:29:13.252Z,87.87
2022-11-14T03:31:39.854Z,87.74
2022-11-14T03:34:06.423Z,87.76
2022-11-14T03:36:34.787Z,87.62
2022-11-14T03:39:01.470Z,87.70
2022-11-14T03:41:28.015Z,88.02
2022-11-14T03:43:54.759Z,87.80
2022-11-14T03:46:21.814Z,88.20
2022-11-14T03:48:48.347Z,88.09
2022-11-14T03:51:15.039Z,87.86
2022-11-14T03:53:41.573Z,88.03
2022-11-14T03:56:08.130Z,88.28
2022-11-14T03:58:34.847Z,87.91
2022-11-14T04:01:01.445Z,87.87
2022-11-14T04:03:28.133Z,88.10
2022-11-14T04:05:54.868Z,88.08
2022-11-14T04:08:21.455Z,87.72
2022-11-14T04:10:48.852Z,87.82
2022-11-14T04:13:16.083Z,88.12
2022-11-14T04:15:42.695Z,88.04
2022-11-14T04:18:09.235Z,87.85
2022-11-14T04:20:35.795Z,88.05
2022-11-14T04:23:02.372Z,87.98
2022-11-14T04:25:28.915Z,88.00
2022-11-14T04:27:55.595Z,87.92
2022-11-14T04:30:22.197Z,87.93
2022-11-14T04:32:49.258Z,87.68
2022-11-14T04:35:16.231Z,87.99
2022-11-14T04:37:42.771Z,87.92
2022-11-14T04:40:09.824Z,87.83
2022-11-14T04:42:36.434Z,88.19
2022-11-14T04:45:03.350Z,87.81
2022-11-14T04:47:29.943Z,87.84
2022-11-14T04:49:56.486Z,87.85
2022-11-14T04:52:23.096Z,87.72
2022-11-14T04:54:49.673Z,87.72
2022-11-14T04:57:17.847Z,87.93
2022-11-14T04:59:44.775Z,87.64
2022-11-14T05:02:11.816Z,87.81
2022-11-14T05:04:38.441Z,87.93
2022-11-14T05:07:05.169Z,87.93
2022-11-14T05:09:31.768Z,87.77
2022-11-14T05:11:58.348Z,87.49
2022-11-14T05:14:24.929Z,88.13
2022-11-14T05:16:51.498Z,87.94
2022-11-14T05:19:18.069Z,87.96
2022-11-14T05:21:44.680Z,88.08
2022-11-14T05:24:11.243Z,87.86
2022-11-14T05:26:38.103Z,87.90
2022-11-14T05:29:04.691Z,87.98
2022-11-14T05:31:31.245Z,88.08
2022-11-14T05:33:57.876Z,87.72
2022-11-14T05:36:24.504Z,87.98
2022-11-14T05:38:51.121Z,87.72
2022-11-14T05:41:22.168Z,88.19
2022-11-14T05:43:48.703Z,87.78
2022-11-14T05:46:16.515Z,87.87
2022-11-14T05:48:43.520Z,87.92
2022-11-14T05:51:12.565Z,88.03
2022-11-14T05:53:40.057Z,88.15
2022-11-14T05:56:11.549Z,87.99
2022-11-14T05:58:38.676Z,87.94
2022-11-14T06:01:11.981Z,87.94
2022-11-14T06:03:41.562Z,88.03
2022-11-14T06:06:11.599Z,87.84
2022-11-14T06:08:38.831Z,87.91
2022-11-14T06:11:08.251Z,87.79
2022-11-14T06:13:35.724Z,87.94
2022-11-14T06:16:16.601Z,87.97
2022-11-14T06:18:43.642Z,87.93
2022-11-14T06:21:32.068Z,87.94
2022-11-14T06:23:58.769Z,88.12
2022-11-14T06:26:34.573Z,87.75
2022-11-14T06:29:01.192Z,87.70
2022-11-14T06:31:31.141Z,88.27
2022-11-14T06:33:57.736Z,87.98
2022-11-14T06:36:26.668Z,88.04
2022-11-14T06:38:53.376Z,88.00
2022-11-14T06:41:21.998Z,88.15
2022-11-14T06:43:54.182Z,87.93
2022-11-14T06:46:25.716Z,87.85
2022-11-14T06:48:52.709Z,88.00
2022-11-14T06:51:19.755Z,88.23
2022-11-14T06:53:46.706Z,87.97
2022-11-14T06:56:15.330Z,88.18
2022-11-14T06:58:44.801Z,87.94
2022-11-14T07:01:19.605Z,88.21
2022-11-14T07:03:46.901Z,88.47
2022-11-14T07:06:17.636Z,88.26
2022-11-14T07:08:44.224Z,88.07
2022-11-14T07:11:13.088Z,88.36
2022-11-14T07:13:39.699Z,88.66
2022-11-14T07:16:09.087Z,88.63
2022-11-14T07:18:35.668Z,88.55
2022-11-14T07:21:05.911Z,88.41
2022-11-14T07:23:34.300Z,88.51
2022-11-14T07:26:04.660Z,88.49
2022-11-14T07:28:32.222Z,88.40
2022-11-14T07:30:59.086Z,89.04
2022-11-14T07:33:25.653Z,88.61
2022-11-14T07:35:52.196Z,88.64
2022-11-14T07:38:21.640Z,88.59
2022-11-14T07:41:00.418Z,88.56
2022-11-14T07:43:28.413Z,88.64
2022-11-14T07:45:59.974Z,88.49
2022-11-14T07:48:30.224Z,88.93
2022-11-14T07:51:09.264Z,88.80
2022-11-14T07:53:36.173Z,88.81
2022-11-14T07:56:09.761Z,88.66
2022-11-14T07:58:40.552Z,88.68
2022-11-14T08:01:11.180Z,88.99
2022-11-14T08:03:42.275Z,88.93
2022-11-14T08:06:14.633Z,88.84
2022-11-14T08:08:41.594Z,88.92
2022-11-14T08:11:08.650Z,89.11
2022-11-14T08:13:35.549Z,89.08
2022-11-14T08:16:12.276Z,88.96
2022-11-14T08:18:42.507Z,89.23
2022-11-14T08:21:09.221Z,89.11
2022-11-14T08:23:35.898Z,89.06
2022-11-14T08:26:02.703Z,89.10
2022-11-14T08:28:29.576Z,89.28
2022-11-14T08:31:01.917Z,89.25
2022-11-14T08:33:28.594Z,88.90
2022-11-14T08:35:57.283Z,89.03
2022-11-14T08:38:23.905Z,89.00
2022-11-14T08:40:50.488Z,89.54
2022-11-14T08:43:20.311Z,89.29
2022-11-14T08:45:46.912Z,88.98
2022-11-14T08:48:13.503Z,89.49
2022-11-14T08:50:40.180Z,89.11
2022-11-14T08:53:06.814Z,89.22
2022-11-14T08:55:36.209Z,88.93
2022-11-14T08:58:02.789Z,89.25
2022-11-14T09:00:33.544Z,89.18
2022-11-14T09:03:03.028Z,89.01
2022-11-14T09:05:29.694Z,88.96
2022-11-14T09:07:59.173Z,89.25
2022-11-14T09:10:25.837Z,88.85
2022-11-14T09:12:59.396Z,89.31
2022-11-14T09:15:27.760Z,89.32
2022-11-14T09:17:55.723Z,89.26
2022-11-14T09:20:32.263Z,88.95
2022-11-14T09:23:01.242Z,88.78
2022-11-14T09:25:29.365Z,89.01
2022-11-14T09:27:56.571Z,89.26
2022-11-14T09:30:23.828Z,88.87
2022-11-14T09:32:51.171Z,89.07
2022-11-14T09:35:18.024Z,89.25
2022-11-14T09:37:44.652Z,88.93
2022-11-14T09:40:13.472Z,89.22
2022-11-14T09:43:25.179Z,89.18
2022-11-14T09:45:53.634Z,88.61
2022-11-14T09:48:25.929Z,88.42
2022-11-14T09:51:09.704Z,88.88
2022-11-14T09:53:44.476Z,88.86
2022-11-14T09:56:15.308Z,88.70
2022-11-14T09:58:42.966Z,88.63
2022-11-14T10:01:26.847Z,88.35
2022-11-14T10:04:13.984Z,88.75
2022-11-14T10:06:53.875Z,88.12
2022-11-14T10:09:35.127Z,88.23
2022-11-14T10:12:13.061Z,88.43
2022-11-14T10:15:01.645Z,88.49
2022-11-14T10:17:44.986Z,88.24
2022-11-14T10:20:40.997Z,88.39
2022-11-14T10:23:17.778Z,88.21
2022-11-14T10:26:23.311Z,88.11
2022-11-14T10:29:14.561Z,88.36
2022-11-14T10:32:25.434Z,87.99
2022-11-14T10:34:59.287Z,88.07
2022-11-14T10:37:41.881Z,88.27
2022-11-14T10:40:20.975Z,87.81
2022-11-14T10:42:51.599Z,88.53
2022-11-14T10:45:26.149Z,88.26
2022-11-14T10:48:16.972Z,88.02
2022-11-14T10:50:52.596Z,87.98
2022-11-14T10:53:28.577Z,87.69
2022-11-14T10:56:05.113Z,88.06
2022-11-14T10:58:42.019Z,87.93
2022-11-14T11:01:36.337Z,87.60
2022-11-14T11:04:36.943Z,88.07
2022-11-14T11:07:09.603Z,87.98
2022-11-14T11:09:57.561Z,88.23
2022-11-14T11:12:38.993Z,88.20
2022-11-14T11:15:17.697Z,88.33
2022-11-14T11:17:55.677Z,88.06
2022-11-14T11:20:41.249Z,88.12
2022-11-14T11:23:10.728Z,88.28
2022-11-14T11:25:41.572Z,88.06
2022-11-14T11:28:26.213Z,88.03
2022-11-14T11:31:01.184Z,87.64
2022-11-14T11:33:30.965Z,87.64
2022-11-14T11:36:01.773Z,88.18
2022-11-14T11:38:30.888Z,88.12
2022-11-14T11:44:16.965Z,88.28
2022-11-14T11:46:55.844Z,88.36
2022-11-14T11:49:44.079Z,87.99
2022-11-14T11:52:35.906Z,88.05
2022-11-14T11:55:05.874Z,88.24
2022-11-14T11:57:36.908Z,88.24
2022-11-14T12:00:17.853Z,87.83
2022-11-14T12:02:50.650Z,87.90
2022-11-14T12:05:25.699Z,88.26
2022-11-14T12:08:09.209Z,87.78
2022-11-14T12:10:41.990Z,88.05
2022-11-14T12:13:32.632Z,88.16
2022-11-14T12:16:15.186Z,87.57
2022-11-14T12:18:54.469Z,88.10
2022-11-14T12:21:58.453Z,88.21
2022-11-14T12:24:51.047Z,87.60
2022-11-14T12:27:43.731Z,87.83
2022-11-14T12:30:24.129Z,87.92
2022-11-14T12:32:53.498Z,88.06
2022-11-14T12:35:25.402Z,87.78
2022-11-14T12:37:55.990Z,87.82
2022-11-14T12:40:33.582Z,88.21
2022-11-14T12:43:02.297Z,87.65
2022-11-14T12:45:40.898Z,87.79
2022-11-14T12:48:25.620Z,87.43
2022-11-14T12:50:54.054Z,87.55
2022-11-14T12:53:38.548Z,87.49
2022-11-14T12:56:30.514Z,87.27
2022-11-14T12:59:06.192Z,87.82
2022-11-14T13:01:51.374Z,87.48
2022-11-14T13:04:39.881Z,87.38
2022-11-14T13:07:15.680Z,87.31
2022-11-14T13:09:54.765Z,87.51
2022-11-14T13:12:48.985Z,87.22
2022-11-14T13:15:48.888Z,87.97
2022-11-14T13:18:44.540Z,87.49
2022-11-14T13:21:42.259Z,87.83
2022-11-14T13:24:17.314Z,87.70
2022-11-14T13:26:45.015Z,87.89
2022-11-14T13:29:37.587Z,87.40
2022-11-14T13:32:04.457Z,87.65
2022-11-14T13:34:54.535Z,87.33
2022-11-14T13:37:51.486Z,87.39
2022-11-14T13:40:33.218Z,87.53
2022-11-14T13:43:16.851Z,87.07
2022-11-14T13:45:49.645Z,87.68
2022-11-14T13:48:24.455Z,87.62
2022-11-14T13:50:56.494Z,87.20
2022-11-14T13:53:28.285Z,87.40
2022-11-14T13:56:07.212Z,87.33
2022-11-14T13:58:55.061Z,87.34
2022-11-14T14:01:30.576Z,87.48
2022-11-14T14:04:05.860Z,87.67
2022-11-14T14:06:42.361Z,87.48
2022-11-14T14:09:50.680Z,87.26
2022-11-14T14:12:57.501Z,87.41
2022-11-14T14:15:42.316Z,87.62
2022-11-14T14:18:31.920Z,87.71
2022-11-14T14:21:03.885Z,87.50
2022-11-14T14:24:09.508Z,87.91
2022-11-14T14:27:02.448Z,87.57
2022-11-14T14:29:48.788Z,87.49
2022-11-14T14:32:19.963Z,87.52
2022-11-14T14:34:46.752Z,87.90
2022-11-14T14:37:21.897Z,87.64
2022-11-14T14:40:06.313Z,86.97
2022-11-14T14:42:46.579Z,87.62
2022-11-14T14:45:20.140Z,87.57
2022-11-14T14:47:58.898Z,87.24
2022-11-14T14:50:40.661Z,87.40
2022-11-14T14:53:08.270Z,87.90
2022-11-14T14:55:36.250Z,87.73
2022-11-14T14:58:27.820Z,87.23
2022-11-14T15:01:01.623Z,87.45
2022-11-14T15:03:36.950Z,87.60
2022-11-14T15:06:17.828Z,87.69
2022-11-14T15:08:45.964Z,87.63
2022-11-14T15:11:14.741Z,87.24
2022-11-14T15:13:42.708Z,87.86
2022-11-14T15:16:10.825Z,87.44
2022-11-14T15:18:38.263Z,87.63
2022-11-14T15:21:09.463Z,87.74
2022-11-14T15:23:38.814Z,87.50
2022-11-14T15:26:16.503Z,87.97
2022-11-14T15:28:43.972Z,87.84
2022-11-14T15:31:20.243Z,87.84
2022-11-14T15:34:01.296Z,87.81
2022-11-14T15:36:28.309Z,87.83
2022-11-14T15:39:04.037Z,87.56
2022-11-14T15:41:32.801Z,87.72
2022-11-14T15:44:02.198Z,87.44
2022-11-14T15:46:42.327Z,87.56
2022-11-14T15:49:14.638Z,87.38
2022-11-14T15:51:45.956Z,87.82
2022-11-14T15:54:21.844Z,87.75
2022-11-14T15:56:48.499Z,87.87
2022-11-14T15:59:15.185Z,87.59
2022-11-14T16:01:44.222Z,87.50
2022-11-14T16:04:16.110Z,87.42
2022-11-14T16:06:42.766Z,87.44
2022-11-14T16:09:14.938Z,87.63
2022-11-14T16:11:41.484Z,87.88
2022-11-14T16:14:08.158Z,87.77
2022-11-14T16:16:34.718Z,87.94
2022-11-14T16:19:01.733Z,87.79
2022-11-14T16:21:28.298Z,87.69
2022-11-14T16:23:55.030Z,88.02
2022-11-14T16:26:22.079Z,88.07
2022-11-14T16:28:48.632Z,87.89
2022-11-14T16:31:15.592Z,87.73
2022-11-14T16:33:42.146Z,88.09
2022-11-14T16:36:11.711Z,87.86
2022-11-14T16:38:38.611Z,88.03
2022-11-14T16:41:09.948Z,88.11
2022-11-14T16:43:36.500Z,88.04
2022-11-14T16:46:07.510Z,88.03
2022-11-14T16:48:34.160Z,87.99
2022-11-14T16:51:14.916Z,88.16
2022-11-14T16:53:47.013Z,88.00
2022-11-14T16:56:13.782Z,87.85
2022-11-14T16:58:41.975Z,87.99
2022-11-14T17:01:20.092Z,87.78
2022-11-14T17:03:47.908Z,88.10
2022-11-14T17:06:14.614Z,87.89
2022-11-14T17:08:41.189Z,87.99
2022-11-14T17:11:10.351Z,87.82
2022-11-14T17:13:37.886Z,88.18
2022-11-14T17:16:05.296Z,87.86
2022-11-14T17:18:38.153Z,88.26
2022-11-14T17:21:06.659Z,87.73
2022-11-14T17:23:33.557Z,88.15
2022-11-14T17:26:08.082Z,87.83
2022-11-14T17:28:34.913Z,88.43
2022-11-14T17:31:07.761Z,88.33
2022-11-14T17:33:34.765Z,88.14
2022-11-14T17:36:06.146Z,87.86
2022-11-14T17:38:34.378Z,88.34
2022-11-14T17:41:01.140Z,87.80
2022-11-14T17:43:34.335Z,88.34
2022-11-14T17:46:04.641Z,87.96
2022-11-14T17:48:32.483Z,88.21
2022-11-14T17:51:07.744Z,88.22
2022-11-14T17:53:34.733Z,88.05
2022-11-14T17:56:01.580Z,88.24
2022-11-14T17:58:30.019Z,87.91
2022-11-14T18:00:58.955Z,87.79
2022-11-14T18:03:26.230Z,88.35
2022-11-14T18:05:53.429Z,88.02
2022-11-14T18:08:20.047Z,88.15
2022-11-14T18:10:46.703Z,87.95
2022-11-14T18:13:13.283Z,88.25
2022-11-14T18:15:39.906Z,87.59
2022-11-14T18:18:06.562Z,88.09
2022-11-14T18:20:33.197Z,88.28
2022-11-14T18:22:59.835Z,88.46
2022-11-14T18:25:26.444Z,88.09
2022-11-14T18:27:53.132Z,87.61
2022-11-14T18:30:40.520Z,87.78
2022-11-14T18:33:06.382Z,88.00
2022-11-14T18:35:32.942Z,88.31
2022-11-14T18:37:59.497Z,88.10
2022-11-14T18:40:26.148Z,87.83
2022-11-14T18:42:52.762Z,88.15
2022-11-14T18:45:19.317Z,88.28
2022-11-14T18:47:45.849Z,88.41
2022-11-14T18:50:12.668Z,88.33
2022-11-14T18:52:39.240Z,88.21
2022-11-14T18:55:07.932Z,88.45
2022-11-14T18:57:34.500Z,88.35
2022-11-14T19:00:01.074Z,88.29
2022-11-14T19:02:27.839Z,88.28
2022-11-14T19:04:54.452Z,87.87
2022-11-14T19:07:21.262Z,88.43
2022-11-14T19:09:47.900Z,88.34
2022-11-14T19:12:24.012Z,88.02
2022-11-14T19:14:52.090Z,87.86
2022-11-14T19:17:21.203Z,88.09
2022-11-14T19:19:49.641Z,88.22
2022-11-14T19:22:17.210Z,88.29
2022-11-14T19:24:46.640Z,88.33
2022-11-14T19:27:16.118Z,87.98
2022-11-14T19:29:43.075Z,88.13
2022-11-14T19:32:09.697Z,88.21
2022-11-14T19:34:36.321Z,88.41
2022-11-14T19:37:03.086Z,88.30
2022-11-14T19:39:30.107Z,88.59
2022-11-14T19:41:56.862Z,88.56
2022-11-14T19:44:23.566Z,88.53
2022-11-14T19:46:50.359Z,88.54
2022-11-14T19:49:17.013Z,88.17
2022-11-14T19:51:43.704Z,88.46
2022-11-14T19:54:11.246Z,88.36
2022-11-14T19:56:38.041Z,88.49
2022-11-14T19:59:09.622Z,88.10
2022-11-14T20:01:42.165Z,88.54
2022-11-14T20:04:12.349Z,88.82
2022-11-14T20:06:39.680Z,88.43
2022-11-14T20:09:08.952Z,88.92
2022-11-14T20:11:35.606Z,88.84
2022-11-14T20:14:02.841Z,88.67
2022-11-14T20:16:32.529Z,88.52
2022-11-14T20:19:00.651Z,88.49
2022-11-14T20:21:30.142Z,88.22
2022-11-14T20:23:57.094Z,88.30
2022-11-14T20:26:24.567Z,88.39
2022-11-14T20:28:52.914Z,88.41
2022-11-14T20:31:28.222Z,88.64
2022-11-14T20:33:55.830Z,88.63
2022-11-14T20:36:29.436Z,88.59
2022-11-14T20:39:02.272Z,88.44
2022-11-14T20:41:28.878Z,88.75
2022-11-14T20:43:55.583Z,88.79
2022-11-14T20:46:22.232Z,88.86
2022-11-14T20:48:49.620Z,88.16
2022-11-14T20:51:19.449Z,88.98
2022-11-14T20:53:46.659Z,88.31
2022-11-14T20:56:13.943Z,88.54
2022-11-14T20:58:41.775Z,88.66
2022-11-14T21:01:08.802Z,88.58
2022-11-14T21:03:36.287Z,88.83
2022-11-14T21:06:03.320Z,88.79
2022-11-14T21:08:30.832Z,88.63
2022-11-14T21:11:00.461Z,88.59
2022-11-14T21:13:45.640Z,88.46
2022-11-14T21:16:14.844Z,88.51
2022-11-14T21:18:45.202Z,88.56
2022-11-14T21:21:19.449Z,88.99
2022-11-14T21:23:47.422Z,88.74
2022-11-14T21:26:22.299Z,88.76
2022-11-14T21:28:52.097Z,88.61
2022-11-14T21:31:26.398Z,88.79
2022-11-14T21:33:56.678Z,88.50
2022-11-14T21:39:15.329Z,88.73
2022-11-14T21:41:43.051Z,88.89
2022-11-14T21:44:13.424Z,88.73
2022-11-14T21:46:41.187Z,88.98
2022-11-14T21:49:08.358Z,89.24
2022-11-14T21:51:35.103Z,88.97
2022-11-14T21:54:06.476Z,89.20
2022-11-14T21:56:34.712Z,89.04
2022-11-14T21:59:15.761Z,88.90
2022-11-14T22:02:09.148Z,88.95
2022-11-14T22:04:37.058Z,89.21
2022-11-14T22:07:06.700Z,89.21
2022-11-14T22:09:34.569Z,89.17
2022-11-14T22:12:01.337Z,89.16
2022-11-14T22:14:29.300Z,89.27
2022-11-14T22:16:56.394Z,89.68
2022-11-14T22:19:23.440Z,89.18
2022-11-14T22:21:50.399Z,89.16
2022-11-14T22:24:16.937Z,89.37
2022-11-14T22:26:43.595Z,89.25
2022-11-14T22:29:10.297Z,89.78
2022-11-14T22:31:37.928Z,89.37
2022-11-14T22:34:04.987Z,89.43
2022-11-14T22:36:31.904Z,89.36
2022-11-14T22:38:58.607Z,89.30
2022-11-14T22:41:32.357Z,89.36
2022-11-14T22:44:02.425Z,89.25
2022-11-14T22:46:32.444Z,89.24
2022-11-14T22:48:59.194Z,89.80
2022-11-14T22:51:29.486Z,89.15
2022-11-14T22:53:59.722Z,89.27
2022-11-14T22:56:28.643Z,89.05
2022-11-14T22:58:56.297Z,88.74
2022-11-14T23:01:29.000Z,88.87
2022-11-14T23:03:57.860Z,88.68
2022-11-14T23:06:25.606Z,88.72
2022-11-14T23:08:53.727Z,88.75
2022-11-14T23:11:23.348Z,88.79
2022-11-14T23:13:52.884Z,88.63
2022-11-14T23:16:26.578Z,88.79
2022-11-14T23:18:58.000Z,88.70
2022-11-14T23:21:37.438Z,89.35
2022-11-14T23:24:11.642Z,89.01
2022-11-14T23:26:38.267Z,88.88
2022-11-14T23:29:05.151Z,88.77
2022-11-14T23:31:34.526Z,89.02
2022-11-14T23:34:01.576Z,88.96
2022-11-14T23:36:28.192Z,88.87
2022-11-14T23:38:55.092Z,89.22
2022-11-14T23:41:25.371Z,89.18
2022-11-14T23:43:54.197Z,89.02
2022-11-14T23:46:20.898Z,89.07
2022-11-14T23:48:47.592Z,89.22
2022-11-14T23:51:14.150Z,89.48
2022-11-14T23:53:41.375Z,89.57
2022-11-14T23:56:13.270Z,89.55
2022-11-14T23:58:40.488Z,89.18
